createdAt,value
2022-10-18T00:00:39.593Z,23.90
2022-10-18T00:06:03.854Z,23.37
2022-10-18T00:11:26.225Z,24.20
2022-10-18T00:16:48.496Z,23.62
2022-10-18T00:22:11.220Z,24.47
2022-10-18T00:27:35.145Z,24.05
2022-10-18T00:32:58.143Z,24.75
2022-10-18T00:38:20.787Z,24.27
2022-10-18T00:44:03.270Z,23.40
2022-10-18T00:49:31.087Z,24.23
2022-10-18T00:54:56.951Z,24.30
2022-10-18T01:00:20.806Z,23.22
2022-10-18T01:05:47.301Z,24.15
2022-10-18T01:11:17.250Z,24.82
2022-10-18T01:22:09.408Z,24.18
2022-10-18T01:28:18.546Z,24.20
2022-10-18T01:33:52.224Z,24.30
2022-10-18T01:39:18.948Z,24.20
2022-10-18T01:44:44.608Z,24.85
2022-10-18T01:50:12.032Z,25.08
2022-10-18T01:55:38.630Z,24.52
2022-10-18T02:01:04.177Z,24.18
2022-10-18T02:06:36.247Z,24.95
2022-10-18T02:12:01.167Z,23.98
2022-10-18T02:17:25.975Z,24.72
2022-10-18T02:22:50.083Z,22.75
2022-10-18T02:28:12.693Z,23.87
2022-10-18T02:33:42.633Z,24.63
2022-10-18T02:39:08.478Z,23.80
2022-10-18T02:44:31.297Z,23.25
2022-10-18T02:49:53.528Z,24.50
2022-10-18T02:55:16.676Z,25.10
2022-10-18T03:00:38.928Z,24.37
2022-10-18T03:06:04.316Z,23.95
2022-10-18T03:11:26.478Z,24.77
2022-10-18T03:16:51.655Z,23.73
2022-10-18T03:22:13.809Z,23.80
2022-10-18T03:27:35.975Z,23.85
2022-10-18T03:32:58.805Z,25.17
2022-10-18T03:38:21.586Z,24.02
2022-10-18T03:43:43.753Z,23.92
2022-10-18T03:49:06.028Z,25.45
2022-10-18T03:54:28.223Z,23.47
2022-10-18T03:59:50.395Z,25.40
2022-10-18T04:05:13.340Z,24.75
2022-10-18T04:10:36.241Z,23.50
2022-10-18T04:15:58.410Z,23.92
2022-10-18T04:21:21.883Z,23.10
2022-10-18T04:26:44.061Z,22.52
2022-10-18T04:32:06.708Z,25.50
2022-10-18T04:37:28.908Z,23.38
2022-10-18T04:42:51.168Z,23.98
2022-10-18T04:48:13.625Z,25.12
2022-10-18T04:53:39.390Z,25.75
2022-10-18T04:59:01.537Z,24.87
2022-10-18T05:04:23.778Z,26.20
2022-10-18T05:09:46.561Z,24.72
2022-10-18T05:15:08.806Z,25.08
2022-10-18T05:20:30.992Z,23.95
2022-10-18T05:25:54.597Z,23.65
2022-10-18T05:31:21.816Z,22.90
2022-10-18T05:36:44.440Z,24.67
2022-10-18T05:42:06.601Z,24.15
2022-10-18T05:47:28.836Z,23.47
2022-10-18T05:52:51.123Z,23.55
2022-10-18T05:58:13.275Z,23.35
2022-10-18T06:03:35.421Z,24.02
2022-10-18T06:09:01.540Z,23.80
2022-10-18T06:14:24.180Z,24.77
2022-10-18T06:19:46.457Z,23.87
2022-10-18T06:25:08.593Z,23.52
2022-10-18T06:30:30.745Z,24.67
2022-10-18T06:36:08.871Z,24.92
2022-10-18T06:41:31.538Z,24.35
2022-10-18T06:46:55.045Z,23.95
2022-10-18T06:52:17.709Z,26.17
2022-10-18T06:57:40.531Z,25.55
2022-10-18T07:03:03.561Z,24.55
2022-10-18T07:08:25.826Z,23.80
2022-10-18T07:13:48.699Z,23.02
2022-10-18T07:19:10.920Z,22.77
2022-10-18T07:29:55.450Z,24.02
2022-10-18T07:35:18.058Z,24.12
2022-10-18T07:40:40.319Z,23.95
2022-10-18T07:46:06.749Z,22.45
2022-10-18T07:51:32.024Z,23.75
2022-10-18T07:56:55.158Z,22.52
2022-10-18T08:02:17.572Z,24.15
2022-10-18T08:07:39.728Z,23.67
2022-10-18T08:13:01.873Z,23.35
2022-10-18T08:18:24.808Z,24.60
2022-10-18T08:23:48.048Z,22.50
2022-10-18T08:29:22.421Z,23.70
2022-10-18T08:34:35.891Z,22.00
2022-10-18T08:39:58.469Z,22.45
2022-10-18T08:45:40.971Z,24.10
2022-10-18T08:50:49.848Z,26.40
2022-10-18T08:56:20.313Z,27.75
2022-10-18T09:02:18.420Z,31.75
2022-10-18T09:08:15.925Z,22.42
2022-10-18T09:14:30.226Z,23.60
2022-10-18T09:20:29.388Z,22.82
2022-10-18T09:26:02.558Z,21.65
2022-10-18T09:31:39.106Z,20.12
2022-10-18T09:37:04.310Z,18.10
2022-10-18T09:42:40.348Z,19.75
2022-10-18T09:48:29.138Z,20.27
2022-10-18T09:54:07.677Z,19.63
2022-10-18T09:59:52.999Z,21.03
2022-10-18T10:05:21.644Z,20.33
2022-10-18T10:10:46.797Z,20.60
2022-10-18T10:16:16.378Z,19.63
2022-10-18T10:21:39.209Z,18.60
2022-10-18T10:27:08.936Z,16.73
2022-10-18T10:32:38.974Z,17.37
2022-10-18T10:43:44.576Z,21.37
2022-10-18T10:49:21.769Z,19.00
2022-10-18T10:54:34.678Z,14.93
2022-10-18T11:00:19.244Z,17.23
2022-10-18T11:05:49.800Z,18.13
2022-10-18T11:11:41.098Z,15.80
2022-10-18T11:17:36.304Z,15.13
2022-10-18T11:23:20.207Z,13.97
2022-10-18T11:29:11.037Z,13.70
2022-10-18T11:34:59.687Z,12.90
2022-10-18T11:40:49.080Z,12.33
2022-10-18T11:46:31.697Z,12.57
2022-10-18T11:52:12.785Z,12.67
2022-10-18T11:57:55.187Z,12.10
2022-10-18T12:04:06.452Z,13.43
2022-10-18T12:09:52.380Z,13.07
2022-10-18T12:15:22.295Z,11.67
2022-10-18T12:20:57.825Z,13.30
2022-10-18T12:26:23.697Z,11.48
2022-10-18T12:31:53.129Z,10.03
2022-10-18T12:37:34.946Z,8.97
2022-10-18T12:43:04.019Z,9.73
2022-10-18T12:48:36.340Z,7.97
2022-10-18T12:54:11.076Z,7.85
2022-10-18T12:59:38.119Z,7.67
2022-10-18T13:05:02.655Z,7.95
2022-10-18T13:10:46.949Z,7.33
2022-10-18T13:16:31.468Z,8.20
2022-10-18T13:22:21.665Z,7.35
2022-10-18T13:27:54.753Z,7.50
2022-10-18T13:33:47.526Z,7.53
2022-10-18T13:39:17.479Z,6.80
2022-10-18T13:44:50.278Z,7.60
2022-10-18T13:50:20.026Z,7.00
2022-10-18T13:56:21.753Z,6.47
2022-10-18T14:02:30.777Z,6.47
2022-10-18T14:07:43.571Z,7.00
2022-10-18T14:13:08.903Z,7.83
2022-10-18T14:18:39.628Z,7.40
2022-10-18T14:24:03.625Z,7.00
2022-10-18T14:29:31.036Z,6.50
2022-10-18T14:35:09.250Z,6.37
2022-10-18T14:40:33.308Z,7.67
2022-10-18T14:46:16.304Z,6.70
2022-10-18T14:51:41.440Z,7.27
2022-10-18T14:57:04.326Z,7.37
2022-10-18T15:02:33.588Z,7.07
2022-10-18T15:07:59.431Z,8.60
2022-10-18T15:13:27.184Z,9.10
2022-10-18T15:18:50.024Z,9.83
2022-10-18T15:24:35.342Z,9.83
2022-10-18T15:29:58.203Z,11.40
2022-10-18T15:35:31.734Z,11.90
2022-10-18T15:40:55.574Z,13.13
2022-10-18T15:46:21.418Z,14.77
2022-10-18T15:52:05.031Z,14.70
2022-10-18T15:57:31.277Z,15.72
2022-10-18T16:02:53.739Z,16.55
2022-10-18T16:08:26.884Z,16.90
2022-10-18T16:13:49.728Z,18.82
2022-10-18T16:19:14.714Z,20.70
2022-10-18T16:24:38.766Z,22.27
2022-10-18T16:30:00.987Z,21.37
2022-10-18T16:35:23.454Z,21.50
2022-10-18T16:40:48.352Z,20.65
2022-10-18T16:46:12.389Z,20.08
2022-10-18T16:51:35.617Z,18.50
2022-10-18T16:56:58.427Z,19.20
2022-10-18T17:02:21.792Z,17.00
2022-10-18T17:07:44.156Z,16.48
2022-10-18T17:13:07.169Z,16.52
2022-10-18T17:18:32.875Z,17.55
2022-10-18T17:23:55.560Z,17.25
2022-10-18T17:29:20.240Z,16.02
2022-10-18T17:34:42.473Z,16.57
2022-10-18T17:40:05.783Z,17.05
2022-10-18T17:45:28.816Z,16.27
2022-10-18T17:50:52.557Z,16.20
2022-10-18T17:56:17.862Z,16.93
2022-10-18T18:01:41.332Z,16.17
2022-10-18T18:07:04.755Z,17.05
2022-10-18T18:12:27.866Z,16.90
2022-10-18T18:17:57.151Z,17.00
2022-10-18T18:23:13.972Z,16.82
2022-10-18T18:34:16.288Z,14.63
2022-10-18T18:39:42.829Z,13.37
2022-10-18T18:45:05.289Z,10.90
2022-10-18T18:50:28.099Z,10.27
2022-10-18T18:55:51.998Z,9.60
2022-10-18T19:01:23.530Z,9.93
2022-10-18T19:06:51.996Z,10.00
2022-10-18T19:12:20.434Z,9.05
2022-10-18T19:17:39.147Z,9.00
2022-10-18T19:23:01.289Z,8.10
2022-10-18T19:28:23.532Z,8.48
2022-10-18T19:33:48.483Z,7.50
2022-10-18T19:39:10.832Z,8.83
2022-10-18T19:44:36.292Z,7.50
2022-10-18T19:49:59.371Z,7.10
2022-10-18T19:55:22.058Z,6.50
2022-10-18T20:00:44.621Z,6.60
2022-10-18T20:06:10.056Z,6.70
2022-10-18T20:11:35.517Z,6.97
2022-10-18T20:16:57.673Z,8.18
2022-10-18T20:22:19.844Z,8.00
2022-10-18T20:27:43.602Z,7.03
2022-10-18T20:33:06.177Z,8.33
2022-10-18T20:38:28.515Z,7.90
2022-10-18T20:43:50.759Z,7.93
2022-10-18T20:49:13.894Z,7.90
2022-10-18T20:54:36.090Z,7.90
2022-10-18T20:59:58.225Z,8.10
2022-10-18T21:05:20.531Z,8.08
2022-10-18T21:10:43.344Z,7.87
2022-10-18T21:16:08.776Z,8.00
2022-10-18T21:21:33.650Z,8.23
2022-10-18T21:26:56.115Z,7.67
2022-10-18T21:32:18.256Z,7.58
2022-10-18T21:37:40.442Z,7.90
2022-10-18T21:43:02.980Z,7.42
2022-10-18T21:48:25.258Z,8.37
2022-10-18T21:53:51.839Z,8.83
2022-10-18T21:59:14.631Z,9.58
2022-10-18T22:04:38.362Z,10.00
2022-10-18T22:10:00.514Z,10.23
2022-10-18T22:15:23.013Z,10.43
2022-10-18T22:20:45.179Z,10.40
2022-10-18T22:26:17.818Z,10.60
2022-10-18T22:31:44.849Z,10.07
2022-10-18T22:37:08.023Z,8.67
2022-10-18T22:42:30.671Z,9.87
2022-10-18T22:47:52.902Z,8.35
2022-10-18T22:53:15.067Z,8.33
2022-10-18T22:58:37.815Z,8.28
2022-10-18T23:04:02.752Z,8.55
2022-10-18T23:09:27.054Z,8.03
2022-10-18T23:14:49.469Z,7.40
2022-10-18T23:20:12.624Z,7.97
2022-10-18T23:25:34.822Z,7.22
2022-10-18T23:30:57.538Z,7.37
2022-10-18T23:36:22.174Z,7.23
2022-10-18T23:41:45.283Z,8.17
2022-10-18T23:47:07.829Z,8.48
2022-10-18T23:52:29.981Z,8.18
2022-10-18T23:57:52.168Z,8.60
